sensor_id;sensor_type;location;lat;lon;timestamp;temperature;humidity
16118;DHT22;8163;50.118;5.342;2022-10-30T00:01:00;18.00;79.40
16118;DHT22;8163;50.118;5.342;2022-10-30T00:03:28;18.00;79.70
16118;DHT22;8163;50.118;5.342;2022-10-30T00:05:55;18.00;79.70
16118;DHT22;8163;50.118;5.342;2022-10-30T00:08:22;17.90;79.70
16118;DHT22;8163;50.118;5.342;2022-10-30T00:10:52;17.90;79.80
16118;DHT22;8163;50.118;5.342;2022-10-30T00:13:20;17.90;79.90
16118;DHT22;8163;50.118;5.342;2022-10-30T00:15:48;17.90;80.10
16118;DHT22;8163;50.118;5.342;2022-10-30T00:18:16;17.80;80.10
16118;DHT22;8163;50.118;5.342;2022-10-30T00:20:43;17.80;80.20
16118;DHT22;8163;50.118;5.342;2022-10-30T00:23:10;17.80;80.20
16118;DHT22;8163;50.118;5.342;2022-10-30T00:25:37;17.80;80.30
16118;DHT22;8163;50.118;5.342;2022-10-30T00:28:06;17.80;80.30
16118;DHT22;8163;50.118;5.342;2022-10-30T00:30:33;17.70;80.40
16118;DHT22;8163;50.118;5.342;2022-10-30T00:33:01;17.70;80.40
16118;DHT22;8163;50.118;5.342;2022-10-30T00:35:28;17.70;80.60
16118;DHT22;8163;50.118;5.342;2022-10-30T00:37:55;17.60;80.40
16118;DHT22;8163;50.118;5.342;2022-10-30T00:40:22;17.60;80.70
16118;DHT22;8163;50.118;5.342;2022-10-30T00:42:49;17.60;80.80
16118;DHT22;8163;50.118;5.342;2022-10-30T00:45:17;17.50;80.70
16118;DHT22;8163;50.118;5.342;2022-10-30T00:47:47;17.50;81.00
16118;DHT22;8163;50.118;5.342;2022-10-30T00:50:19;17.50;81.30
16118;DHT22;8163;50.118;5.342;2022-10-30T00:52:49;17.50;81.50
16118;DHT22;8163;50.118;5.342;2022-10-30T00:55:20;17.50;81.50
16118;DHT22;8163;50.118;5.342;2022-10-30T00:57:48;17.50;81.50
16118;DHT22;8163;50.118;5.342;2022-10-30T01:00:19;17.40;81.40
16118;DHT22;8163;50.118;5.342;2022-10-30T01:02:47;17.40;81.70
16118;DHT22;8163;50.118;5.342;2022-10-30T01:05:17;17.40;81.70
16118;DHT22;8163;50.118;5.342;2022-10-30T01:07:44;17.40;81.70
16118;DHT22;8163;50.118;5.342;2022-10-30T01:10:12;17.30;81.50
16118;DHT22;8163;50.118;5.342;2022-10-30T01:12:40;17.30;81.70
16118;DHT22;8163;50.118;5.342;2022-10-30T01:15:09;17.30;81.90
16118;DHT22;8163;50.118;5.342;2022-10-30T01:20:55;17.20;82.10
16118;DHT22;8163;50.118;5.342;2022-10-30T01:23:34;17.20;82.20
16118;DHT22;8163;50.118;5.342;2022-10-30T01:26:13;17.20;82.20
16118;DHT22;8163;50.118;5.342;2022-10-30T01:29:02;17.10;82.30
16118;DHT22;8163;50.118;5.342;2022-10-30T01:31:47;17.10;82.50
16118;DHT22;8163;50.118;5.342;2022-10-30T01:34:20;17.10;82.50
16118;DHT22;8163;50.118;5.342;2022-10-30T01:36:53;17.10;82.50
16118;DHT22;8163;50.118;5.342;2022-10-30T01:39:25;17.00;82.60
16118;DHT22;8163;50.118;5.342;2022-10-30T01:41:52;17.00;83.50
16118;DHT22;8163;50.118;5.342;2022-10-30T01:44:23;17.00;82.80
16118;DHT22;8163;50.118;5.342;2022-10-30T01:47:02;16.90;82.90
16118;DHT22;8163;50.118;5.342;2022-10-30T01:49:55;16.90;83.10
16118;DHT22;8163;50.118;5.342;2022-10-30T01:52:31;16.90;83.30
16118;DHT22;8163;50.118;5.342;2022-10-30T01:55:04;16.90;83.40
16118;DHT22;8163;50.118;5.342;2022-10-30T01:57:39;16.90;83.80
16118;DHT22;8163;50.118;5.342;2022-10-30T02:00:10;16.90;83.80
16118;DHT22;8163;50.118;5.342;2022-10-30T02:02:37;16.80;83.80
16118;DHT22;8163;50.118;5.342;2022-10-30T02:05:08;16.90;84.20
16118;DHT22;8163;50.118;5.342;2022-10-30T02:07:35;16.80;84.10
16118;DHT22;8163;50.118;5.342;2022-10-30T02:10:04;16.80;84.20
16118;DHT22;8163;50.118;5.342;2022-10-30T02:12:31;16.80;84.50
16118;DHT22;8163;50.118;5.342;2022-10-30T02:14:59;16.80;84.50
16118;DHT22;8163;50.118;5.342;2022-10-30T02:17:27;16.70;84.60
16118;DHT22;8163;50.118;5.342;2022-10-30T02:19:55;16.80;84.80
16118;DHT22;8163;50.118;5.342;2022-10-30T02:22:23;16.70;85.00
16118;DHT22;8163;50.118;5.342;2022-10-30T02:24:50;16.70;85.80
16118;DHT22;8163;50.118;5.342;2022-10-30T02:27:17;16.80;85.20
16118;DHT22;8163;50.118;5.342;2022-10-30T02:29:44;16.80;85.10
16118;DHT22;8163;50.118;5.342;2022-10-30T02:32:11;16.80;84.70
16118;DHT22;8163;50.118;5.342;2022-10-30T02:34:38;16.70;84.60
16118;DHT22;8163;50.118;5.342;2022-10-30T02:37:04;16.60;84.60
16118;DHT22;8163;50.118;5.342;2022-10-30T02:39:33;16.50;84.50
16118;DHT22;8163;50.118;5.342;2022-10-30T02:42:00;16.40;84.60
16118;DHT22;8163;50.118;5.342;2022-10-30T02:44:27;16.40;84.80
16118;DHT22;8163;50.118;5.342;2022-10-30T02:46:53;16.30;84.80
16118;DHT22;8163;50.118;5.342;2022-10-30T02:49:21;16.20;84.80
16118;DHT22;8163;50.118;5.342;2022-10-30T02:51:48;16.10;84.80
16118;DHT22;8163;50.118;5.342;2022-10-30T02:54:14;16.00;84.90
16118;DHT22;8163;50.118;5.342;2022-10-30T02:56:43;15.90;85.10
16118;DHT22;8163;50.118;5.342;2022-10-30T02:59:10;15.90;85.60
16118;DHT22;8163;50.118;5.342;2022-10-30T03:01:39;15.80;85.90
16118;DHT22;8163;50.118;5.342;2022-10-30T03:04:06;15.80;86.10
16118;DHT22;8163;50.118;5.342;2022-10-30T03:06:34;15.80;86.40
16118;DHT22;8163;50.118;5.342;2022-10-30T03:09:01;15.80;86.70
16118;DHT22;8163;50.118;5.342;2022-10-30T03:11:33;15.70;86.60
16118;DHT22;8163;50.118;5.342;2022-10-30T03:14:01;15.70;87.00
16118;DHT22;8163;50.118;5.342;2022-10-30T03:16:28;15.60;87.30
16118;DHT22;8163;50.118;5.342;2022-10-30T03:18:56;15.60;87.60
16118;DHT22;8163;50.118;5.342;2022-10-30T03:21:24;15.60;88.00
16118;DHT22;8163;50.118;5.342;2022-10-30T03:23:52;15.60;88.50
16118;DHT22;8163;50.118;5.342;2022-10-30T03:26:20;15.60;88.90
16118;DHT22;8163;50.118;5.342;2022-10-30T03:28:47;15.60;89.40
16118;DHT22;8163;50.118;5.342;2022-10-30T03:31:17;15.60;90.00
16118;DHT22;8163;50.118;5.342;2022-10-30T03:33:44;15.60;90.10
16118;DHT22;8163;50.118;5.342;2022-10-30T03:36:13;15.50;90.30
16118;DHT22;8163;50.118;5.342;2022-10-30T03:38:40;15.60;90.50
16118;DHT22;8163;50.118;5.342;2022-10-30T03:41:08;15.50;90.70
16118;DHT22;8163;50.118;5.342;2022-10-30T03:43:37;15.50;90.90
16118;DHT22;8163;50.118;5.342;2022-10-30T03:46:04;15.40;91.40
16118;DHT22;8163;50.118;5.342;2022-10-30T03:48:32;15.30;91.80
16118;DHT22;8163;50.118;5.342;2022-10-30T03:50:59;15.30;92.20
16118;DHT22;8163;50.118;5.342;2022-10-30T03:53:27;15.30;92.60
16118;DHT22;8163;50.118;5.342;2022-10-30T03:55:57;15.30;93.00
16118;DHT22;8163;50.118;5.342;2022-10-30T03:58:25;15.30;93.50
16118;DHT22;8163;50.118;5.342;2022-10-30T04:00:53;15.40;93.80
16118;DHT22;8163;50.118;5.342;2022-10-30T04:03:20;15.30;94.10
16118;DHT22;8163;50.118;5.342;2022-10-30T04:05:52;15.40;94.50
16118;DHT22;8163;50.118;5.342;2022-10-30T04:08:19;15.30;94.60
16118;DHT22;8163;50.118;5.342;2022-10-30T04:10:46;15.30;95.30
16118;DHT22;8163;50.118;5.342;2022-10-30T04:13:14;15.30;96.30
16118;DHT22;8163;50.118;5.342;2022-10-30T04:15:42;15.30;97.20
16118;DHT22;8163;50.118;5.342;2022-10-30T04:18:10;15.40;97.60
16118;DHT22;8163;50.118;5.342;2022-10-30T04:20:38;15.50;97.90
16118;DHT22;8163;50.118;5.342;2022-10-30T04:23:12;15.50;97.70
16118;DHT22;8163;50.118;5.342;2022-10-30T04:25:39;15.50;97.60
16118;DHT22;8163;50.118;5.342;2022-10-30T04:28:06;15.60;97.70
16118;DHT22;8163;50.118;5.342;2022-10-30T04:30:32;15.60;97.70
16118;DHT22;8163;50.118;5.342;2022-10-30T04:33:04;15.60;98.00
16118;DHT22;8163;50.118;5.342;2022-10-30T04:35:33;15.50;97.50
16118;DHT22;8163;50.118;5.342;2022-10-30T04:38:03;15.50;97.40
16118;DHT22;8163;50.118;5.342;2022-10-30T04:40:34;15.60;97.50
16118;DHT22;8163;50.118;5.342;2022-10-30T04:43:01;15.50;97.90
16118;DHT22;8163;50.118;5.342;2022-10-30T04:45:28;15.60;98.40
16118;DHT22;8163;50.118;5.342;2022-10-30T04:48:00;15.60;98.10
16118;DHT22;8163;50.118;5.342;2022-10-30T04:50:27;15.50;97.60
16118;DHT22;8163;50.118;5.342;2022-10-30T04:52:59;15.50;96.90
16118;DHT22;8163;50.118;5.342;2022-10-30T04:55:26;15.40;96.70
16118;DHT22;8163;50.118;5.342;2022-10-30T04:57:56;15.30;96.30
16118;DHT22;8163;50.118;5.342;2022-10-30T05:00:24;15.20;96.20
16118;DHT22;8163;50.118;5.342;2022-10-30T05:02:51;15.10;96.30
16118;DHT22;8163;50.118;5.342;2022-10-30T05:05:18;14.90;96.20
16118;DHT22;8163;50.118;5.342;2022-10-30T05:07:45;14.80;96.50
16118;DHT22;8163;50.118;5.342;2022-10-30T05:10:13;14.70;97.00
16118;DHT22;8163;50.118;5.342;2022-10-30T05:12:41;14.60;98.00
16118;DHT22;8163;50.118;5.342;2022-10-30T05:15:10;14.60;98.60
16118;DHT22;8163;50.118;5.342;2022-10-30T05:17:38;14.60;99.10
16118;DHT22;8163;50.118;5.342;2022-10-30T05:20:05;14.50;99.40
16118;DHT22;8163;50.118;5.342;2022-10-30T05:22:33;14.60;99.90
16118;DHT22;8163;50.118;5.342;2022-10-30T05:25:00;14.60;99.90
16118;DHT22;8163;50.118;5.342;2022-10-30T05:27:27;14.60;99.90
16118;DHT22;8163;50.118;5.342;2022-10-30T05:29:53;14.60;99.90
16118;DHT22;8163;50.118;5.342;2022-10-30T05:32:22;14.60;99.90
16118;DHT22;8163;50.118;5.342;2022-10-30T05:34:50;14.60;99.90
16118;DHT22;8163;50.118;5.342;2022-10-30T05:37:17;14.60;99.90
16118;DHT22;8163;50.118;5.342;2022-10-30T05:39:44;14.70;99.90
16118;DHT22;8163;50.118;5.342;2022-10-30T05:42:11;14.70;99.90
16118;DHT22;8163;50.118;5.342;2022-10-30T05:44:38;14.60;99.90
16118;DHT22;8163;50.118;5.342;2022-10-30T05:47:05;14.50;99.90
16118;DHT22;8163;50.118;5.342;2022-10-30T05:49:33;14.50;99.90
16118;DHT22;8163;50.118;5.342;2022-10-30T05:52:00;14.50;99.90
16118;DHT22;8163;50.118;5.342;2022-10-30T05:54:27;14.40;99.90
16118;DHT22;8163;50.118;5.342;2022-10-30T05:56:55;14.30;99.90
16118;DHT22;8163;50.118;5.342;2022-10-30T05:59:22;14.20;99.90
16118;DHT22;8163;50.118;5.342;2022-10-30T06:01:49;14.10;99.90
16118;DHT22;8163;50.118;5.342;2022-10-30T06:04:16;14.10;99.90
16118;DHT22;8163;50.118;5.342;2022-10-30T06:06:45;14.10;99.90
16118;DHT22;8163;50.118;5.342;2022-10-30T06:09:12;14.10;99.90
16118;DHT22;8163;50.118;5.342;2022-10-30T06:11:39;14.10;99.90
16118;DHT22;8163;50.118;5.342;2022-10-30T06:14:06;14.10;99.90
16118;DHT22;8163;50.118;5.342;2022-10-30T06:16:32;14.20;99.90
16118;DHT22;8163;50.118;5.342;2022-10-30T06:18:59;14.20;99.90
16118;DHT22;8163;50.118;5.342;2022-10-30T06:21:26;14.20;99.90
16118;DHT22;8163;50.118;5.342;2022-10-30T06:23:56;14.30;99.90
16118;DHT22;8163;50.118;5.342;2022-10-30T06:26:23;14.20;99.90
16118;DHT22;8163;50.118;5.342;2022-10-30T06:28:50;14.20;99.90
16118;DHT22;8163;50.118;5.342;2022-10-30T06:31:17;14.20;99.90
16118;DHT22;8163;50.118;5.342;2022-10-30T06:33:44;14.20;99.90
16118;DHT22;8163;50.118;5.342;2022-10-30T06:36:11;14.10;99.90
16118;DHT22;8163;50.118;5.342;2022-10-30T06:38:38;14.20;99.90
16118;DHT22;8163;50.118;5.342;2022-10-30T06:41:06;14.10;99.90
16118;DHT22;8163;50.118;5.342;2022-10-30T06:43:33;14.20;99.90
16118;DHT22;8163;50.118;5.342;2022-10-30T06:46:00;14.30;99.90
16118;DHT22;8163;50.118;5.342;2022-10-30T06:48:27;14.30;99.90
16118;DHT22;8163;50.118;5.342;2022-10-30T06:50:55;14.40;99.90
16118;DHT22;8163;50.118;5.342;2022-10-30T06:53:22;14.50;99.90
16118;DHT22;8163;50.118;5.342;2022-10-30T06:55:54;14.60;99.90
16118;DHT22;8163;50.118;5.342;2022-10-30T06:58:22;14.80;99.90
16118;DHT22;8163;50.118;5.342;2022-10-30T07:00:49;15.00;99.90
16118;DHT22;8163;50.118;5.342;2022-10-30T07:03:16;15.20;99.90
16118;DHT22;8163;50.118;5.342;2022-10-30T07:05:43;15.60;99.90
16118;DHT22;8163;50.118;5.342;2022-10-30T07:08:12;15.80;99.90
16118;DHT22;8163;50.118;5.342;2022-10-30T07:10:39;16.80;99.90
16118;DHT22;8163;50.118;5.342;2022-10-30T07:13:07;17.50;99.90
16118;DHT22;8163;50.118;5.342;2022-10-30T07:15:35;18.00;99.90
16118;DHT22;8163;50.118;5.342;2022-10-30T07:18:03;18.00;99.90
16118;DHT22;8163;50.118;5.342;2022-10-30T07:20:32;18.30;99.90
16118;DHT22;8163;50.118;5.342;2022-10-30T07:23:00;18.70;99.90
16118;DHT22;8163;50.118;5.342;2022-10-30T07:25:27;19.10;99.90
16118;DHT22;8163;50.118;5.342;2022-10-30T07:27:56;19.50;99.90
16118;DHT22;8163;50.118;5.342;2022-10-30T07:30:26;19.60;99.90
16118;DHT22;8163;50.118;5.342;2022-10-30T07:32:59;19.50;98.50
16118;DHT22;8163;50.118;5.342;2022-10-30T07:35:26;19.10;96.90
16118;DHT22;8163;50.118;5.342;2022-10-30T07:37:53;18.80;95.80
16118;DHT22;8163;50.118;5.342;2022-10-30T07:40:21;18.50;94.90
16118;DHT22;8163;50.118;5.342;2022-10-30T07:42:48;18.30;94.70
16118;DHT22;8163;50.118;5.342;2022-10-30T07:45:15;18.20;94.20
16118;DHT22;8163;50.118;5.342;2022-10-30T07:47:42;18.40;94.00
16118;DHT22;8163;50.118;5.342;2022-10-30T07:50:11;19.20;94.50
16118;DHT22;8163;50.118;5.342;2022-10-30T07:52:38;19.90;94.30
16118;DHT22;8163;50.118;5.342;2022-10-30T07:55:06;20.70;94.00
16118;DHT22;8163;50.118;5.342;2022-10-30T07:57:36;21.30;93.60
16118;DHT22;8163;50.118;5.342;2022-10-30T08:00:04;20.90;91.80
16118;DHT22;8163;50.118;5.342;2022-10-30T08:02:32;20.30;90.10
16118;DHT22;8163;50.118;5.342;2022-10-30T08:04:59;19.80;88.50
16118;DHT22;8163;50.118;5.342;2022-10-30T08:07:29;19.40;87.50
16118;DHT22;8163;50.118;5.342;2022-10-30T08:09:57;19.00;86.60
16118;DHT22;8163;50.118;5.342;2022-10-30T08:12:24;18.70;86.30
16118;DHT22;8163;50.118;5.342;2022-10-30T08:14:51;18.60;86.30
16118;DHT22;8163;50.118;5.342;2022-10-30T08:17:19;18.50;86.20
16118;DHT22;8163;50.118;5.342;2022-10-30T08:19:46;18.40;86.10
16118;DHT22;8163;50.118;5.342;2022-10-30T08:22:14;18.40;86.10
16118;DHT22;8163;50.118;5.342;2022-10-30T08:24:42;18.60;86.20
16118;DHT22;8163;50.118;5.342;2022-10-30T08:27:09;19.40;87.30
16118;DHT22;8163;50.118;5.342;2022-10-30T08:29:36;20.20;88.00
16118;DHT22;8163;50.118;5.342;2022-10-30T08:32:04;21.10;87.40
16118;DHT22;8163;50.118;5.342;2022-10-30T08:34:31;21.60;86.50
16118;DHT22;8163;50.118;5.342;2022-10-30T08:36:59;21.90;85.00
16118;DHT22;8163;50.118;5.342;2022-10-30T08:39:26;22.70;84.20
16118;DHT22;8163;50.118;5.342;2022-10-30T08:41:58;23.60;83.20
16118;DHT22;8163;50.118;5.342;2022-10-30T08:44:25;24.30;80.80
16118;DHT22;8163;50.118;5.342;2022-10-30T08:46:52;25.00;80.10
16118;DHT22;8163;50.118;5.342;2022-10-30T08:49:19;25.20;78.10
16118;DHT22;8163;50.118;5.342;2022-10-30T08:51:46;25.40;76.60
16118;DHT22;8163;50.118;5.342;2022-10-30T08:54:13;25.70;75.50
16118;DHT22;8163;50.118;5.342;2022-10-30T08:56:40;25.90;74.30
16118;DHT22;8163;50.118;5.342;2022-10-30T08:59:10;25.50;72.40
16118;DHT22;8163;50.118;5.342;2022-10-30T09:01:37;25.30;71.40
16118;DHT22;8163;50.118;5.342;2022-10-30T09:04:05;25.00;70.60
16118;DHT22;8163;50.118;5.342;2022-10-30T09:06:32;24.70;70.20
16118;DHT22;8163;50.118;5.342;2022-10-30T09:08:59;24.60;69.90
16118;DHT22;8163;50.118;5.342;2022-10-30T09:11:26;24.70;69.40
16118;DHT22;8163;50.118;5.342;2022-10-30T09:13:53;24.80;68.70
16118;DHT22;8163;50.118;5.342;2022-10-30T09:16:21;25.10;68.20
16118;DHT22;8163;50.118;5.342;2022-10-30T09:18:48;25.40;67.70
16118;DHT22;8163;50.118;5.342;2022-10-30T09:21:16;25.90;67.60
16118;DHT22;8163;50.118;5.342;2022-10-30T09:23:43;26.10;66.70
16118;DHT22;8163;50.118;5.342;2022-10-30T09:26:10;26.60;65.90
16118;DHT22;8163;50.118;5.342;2022-10-30T09:28:39;27.00;65.20
16118;DHT22;8163;50.118;5.342;2022-10-30T09:31:08;27.40;64.40
16118;DHT22;8163;50.118;5.342;2022-10-30T09:33:36;27.80;63.50
16118;DHT22;8163;50.118;5.342;2022-10-30T09:36:04;28.20;62.80
16118;DHT22;8163;50.118;5.342;2022-10-30T09:38:31;28.40;61.30
16118;DHT22;8163;50.118;5.342;2022-10-30T09:41:11;28.70;60.50
16118;DHT22;8163;50.118;5.342;2022-10-30T09:43:56;28.50;59.10
16118;DHT22;8163;50.118;5.342;2022-10-30T09:46:36;28.60;58.60
16118;DHT22;8163;50.118;5.342;2022-10-30T09:49:33;28.60;58.70
16118;DHT22;8163;50.118;5.342;2022-10-30T09:52:12;28.00;58.00
16118;DHT22;8163;50.118;5.342;2022-10-30T09:54:54;27.80;58.10
16118;DHT22;8163;50.118;5.342;2022-10-30T09:57:31;27.20;57.80
16118;DHT22;8163;50.118;5.342;2022-10-30T10:00:04;26.90;57.40
16118;DHT22;8163;50.118;5.342;2022-10-30T10:02:34;27.60;58.00
16118;DHT22;8163;50.118;5.342;2022-10-30T10:05:18;28.20;57.60
16118;DHT22;8163;50.118;5.342;2022-10-30T10:07:48;28.50;56.40
16118;DHT22;8163;50.118;5.342;2022-10-30T10:10:20;28.40;55.80
16118;DHT22;8163;50.118;5.342;2022-10-30T10:12:51;28.20;55.60
16118;DHT22;8163;50.118;5.342;2022-10-30T10:15:28;28.00;55.10
16118;DHT22;8163;50.118;5.342;2022-10-30T10:18:00;27.90;55.00
16118;DHT22;8163;50.118;5.342;2022-10-30T10:20:32;27.90;54.70
16118;DHT22;8163;50.118;5.342;2022-10-30T10:23:05;28.20;54.10
16118;DHT22;8163;50.118;5.342;2022-10-30T10:25:41;28.40;53.80
16118;DHT22;8163;50.118;5.342;2022-10-30T10:28:25;28.30;53.70
16118;DHT22;8163;50.118;5.342;2022-10-30T10:30:58;28.30;53.20
16118;DHT22;8163;50.118;5.342;2022-10-30T10:33:54;28.00;52.70
16118;DHT22;8163;50.118;5.342;2022-10-30T10:36:33;27.70;52.40
16118;DHT22;8163;50.118;5.342;2022-10-30T10:39:12;27.60;52.40
16118;DHT22;8163;50.118;5.342;2022-10-30T10:41:57;27.60;52.30
16118;DHT22;8163;50.118;5.342;2022-10-30T10:44:38;27.40;52.20
16118;DHT22;8163;50.118;5.342;2022-10-30T10:47:27;27.50;52.00
16118;DHT22;8163;50.118;5.342;2022-10-30T10:50:09;27.60;50.90
16118;DHT22;8163;50.118;5.342;2022-10-30T10:52:46;27.30;50.70
16118;DHT22;8163;50.118;5.342;2022-10-30T10:55:33;27.10;51.00
16118;DHT22;8163;50.118;5.342;2022-10-30T10:58:06;27.00;51.00
16118;DHT22;8163;50.118;5.342;2022-10-30T11:00:36;27.20;51.30
16118;DHT22;8163;50.118;5.342;2022-10-30T11:03:08;27.20;50.70
16118;DHT22;8163;50.118;5.342;2022-10-30T11:05:40;26.90;50.60
16118;DHT22;8163;50.118;5.342;2022-10-30T11:08:16;26.80;50.80
16118;DHT22;8163;50.118;5.342;2022-10-30T11:10:45;27.10;50.60
16118;DHT22;8163;50.118;5.342;2022-10-30T11:13:15;27.40;50.50
16118;DHT22;8163;50.118;5.342;2022-10-30T11:15:57;27.40;50.40
16118;DHT22;8163;50.118;5.342;2022-10-30T11:18:25;27.30;50.10
16118;DHT22;8163;50.118;5.342;2022-10-30T11:20:56;27.30;49.90
16118;DHT22;8163;50.118;5.342;2022-10-30T11:23:37;27.10;50.10
16118;DHT22;8163;50.118;5.342;2022-10-30T11:26:26;27.00;50.30
16118;DHT22;8163;50.118;5.342;2022-10-30T11:28:56;27.10;50.20
16118;DHT22;8163;50.118;5.342;2022-10-30T11:31:26;27.20;50.20
16118;DHT22;8163;50.118;5.342;2022-10-30T11:34:12;27.40;50.10
16118;DHT22;8163;50.118;5.342;2022-10-30T11:36:40;27.70;50.20
16118;DHT22;8163;50.118;5.342;2022-10-30T11:39:17;28.10;50.70
16118;DHT22;8163;50.118;5.342;2022-10-30T11:41:47;28.30;50.10
16118;DHT22;8163;50.118;5.342;2022-10-30T11:44:15;28.20;50.00
16118;DHT22;8163;50.118;5.342;2022-10-30T11:46:42;28.30;49.90
16118;DHT22;8163;50.118;5.342;2022-10-30T11:49:23;28.40;49.60
16118;DHT22;8163;50.118;5.342;2022-10-30T11:51:52;28.10;48.60
16118;DHT22;8163;50.118;5.342;2022-10-30T11:54:21;28.20;49.00
16118;DHT22;8163;50.118;5.342;2022-10-30T11:56:49;28.30;49.20
16118;DHT22;8163;50.118;5.342;2022-10-30T11:59:22;28.70;49.80
16118;DHT22;8163;50.118;5.342;2022-10-30T12:02:01;29.00;49.50
16118;DHT22;8163;50.118;5.342;2022-10-30T12:04:31;29.10;49.10
16118;DHT22;8163;50.118;5.342;2022-10-30T12:07:13;29.20;48.80
16118;DHT22;8163;50.118;5.342;2022-10-30T12:10:07;29.00;48.20
16118;DHT22;8163;50.118;5.342;2022-10-30T12:15:28;29.20;48.30
16118;DHT22;8163;50.118;5.342;2022-10-30T12:18:00;29.30;48.50
16118;DHT22;8163;50.118;5.342;2022-10-30T12:20:28;29.40;48.40
16118;DHT22;8163;50.118;5.342;2022-10-30T12:22:55;29.20;48.20
16118;DHT22;8163;50.118;5.342;2022-10-30T12:25:28;29.20;48.00
16118;DHT22;8163;50.118;5.342;2022-10-30T12:27:59;28.90;47.80
16118;DHT22;8163;50.118;5.342;2022-10-30T12:30:28;28.60;47.70
16118;DHT22;8163;50.118;5.342;2022-10-30T12:32:59;28.40;47.80
16118;DHT22;8163;50.118;5.342;2022-10-30T12:35:39;28.30;48.00
16118;DHT22;8163;50.118;5.342;2022-10-30T12:38:14;28.00;48.00
16118;DHT22;8163;50.118;5.342;2022-10-30T12:40:54;27.60;48.30
16118;DHT22;8163;50.118;5.342;2022-10-30T12:43:24;27.40;48.90
16118;DHT22;8163;50.118;5.342;2022-10-30T12:45:55;27.20;48.80
16118;DHT22;8163;50.118;5.342;2022-10-30T12:48:29;26.90;49.70
16118;DHT22;8163;50.118;5.342;2022-10-30T12:51:10;26.80;49.40
16118;DHT22;8163;50.118;5.342;2022-10-30T12:53:45;26.80;49.90
16118;DHT22;8163;50.118;5.342;2022-10-30T12:56:18;26.50;49.80
16118;DHT22;8163;50.118;5.342;2022-10-30T12:58:49;26.30;50.10
16118;DHT22;8163;50.118;5.342;2022-10-30T13:01:23;26.00;50.40
16118;DHT22;8163;50.118;5.342;2022-10-30T13:03:55;25.80;50.60
16118;DHT22;8163;50.118;5.342;2022-10-30T13:06:26;25.50;50.80
16118;DHT22;8163;50.118;5.342;2022-10-30T13:09:03;25.20;51.00
16118;DHT22;8163;50.118;5.342;2022-10-30T13:11:40;24.60;51.20
16118;DHT22;8163;50.118;5.342;2022-10-30T13:14:13;24.30;51.70
16118;DHT22;8163;50.118;5.342;2022-10-30T13:16:41;24.00;52.10
16118;DHT22;8163;50.118;5.342;2022-10-30T13:19:10;23.80;52.60
16118;DHT22;8163;50.118;5.342;2022-10-30T13:21:45;23.60;53.60
16118;DHT22;8163;50.118;5.342;2022-10-30T13:24:17;23.60;53.70
16118;DHT22;8163;50.118;5.342;2022-10-30T13:26:53;23.60;54.00
16118;DHT22;8163;50.118;5.342;2022-10-30T13:29:26;23.80;54.30
16118;DHT22;8163;50.118;5.342;2022-10-30T13:32:22;23.90;54.50
16118;DHT22;8163;50.118;5.342;2022-10-30T13:34:56;23.80;54.70
16118;DHT22;8163;50.118;5.342;2022-10-30T13:37:29;23.90;54.80
16118;DHT22;8163;50.118;5.342;2022-10-30T13:40:09;24.10;55.10
16118;DHT22;8163;50.118;5.342;2022-10-30T13:42:49;24.10;55.10
16118;DHT22;8163;50.118;5.342;2022-10-30T13:45:32;24.00;55.10
16118;DHT22;8163;50.118;5.342;2022-10-30T13:48:10;24.00;55.30
16118;DHT22;8163;50.118;5.342;2022-10-30T13:50:53;24.00;55.40
16118;DHT22;8163;50.118;5.342;2022-10-30T13:53:29;24.00;55.60
16118;DHT22;8163;50.118;5.342;2022-10-30T13:55:58;24.00;55.60
16118;DHT22;8163;50.118;5.342;2022-10-30T13:58:30;24.20;56.00
16118;DHT22;8163;50.118;5.342;2022-10-30T14:01:04;24.20;56.20
16118;DHT22;8163;50.118;5.342;2022-10-30T14:03:47;24.20;56.30
16118;DHT22;8163;50.118;5.342;2022-10-30T14:06:26;24.30;56.50
16118;DHT22;8163;50.118;5.342;2022-10-30T14:09:05;24.20;56.40
16118;DHT22;8163;50.118;5.342;2022-10-30T14:11:36;24.00;56.30
16118;DHT22;8163;50.118;5.342;2022-10-30T14:14:20;23.70;56.20
16118;DHT22;8163;50.118;5.342;2022-10-30T14:17:08;23.50;56.50
16118;DHT22;8163;50.118;5.342;2022-10-30T14:20:24;23.10;56.40
16118;DHT22;8163;50.118;5.342;2022-10-30T14:23:06;22.60;56.40
16118;DHT22;8163;50.118;5.342;2022-10-30T14:25:33;22.20;56.40
16118;DHT22;8163;50.118;5.342;2022-10-30T14:28:00;21.90;57.20
16118;DHT22;8163;50.118;5.342;2022-10-30T14:30:29;21.70;57.10
16118;DHT22;8163;50.118;5.342;2022-10-30T14:32:56;21.60;57.60
16118;DHT22;8163;50.118;5.342;2022-10-30T14:35:35;21.50;57.90
16118;DHT22;8163;50.118;5.342;2022-10-30T14:38:23;21.40;58.30
16118;DHT22;8163;50.118;5.342;2022-10-30T14:41:26;21.30;58.70
16118;DHT22;8163;50.118;5.342;2022-10-30T14:44:23;21.20;58.80
16118;DHT22;8163;50.118;5.342;2022-10-30T14:47:08;21.10;59.00
16118;DHT22;8163;50.118;5.342;2022-10-30T14:49:44;21.10;59.40
16118;DHT22;8163;50.118;5.342;2022-10-30T14:52:28;21.00;60.10
16118;DHT22;8163;50.118;5.342;2022-10-30T14:55:24;20.90;59.80
16118;DHT22;8163;50.118;5.342;2022-10-30T14:58:07;20.80;60.10
16118;DHT22;8163;50.118;5.342;2022-10-30T15:37:17;20.00;58.10
16118;DHT22;8163;50.118;5.342;2022-10-30T15:39:44;19.80;59.30
16118;DHT22;8163;50.118;5.342;2022-10-30T15:42:11;19.80;60.80
16118;DHT22;8163;50.118;5.342;2022-10-30T15:44:41;19.70;62.80
16118;DHT22;8163;50.118;5.342;2022-10-30T15:47:12;19.60;63.10
16118;DHT22;8163;50.118;5.342;2022-10-30T15:49:41;19.50;63.60
16118;DHT22;8163;50.118;5.342;2022-10-30T15:52:14;19.40;64.50
16118;DHT22;8163;50.118;5.342;2022-10-30T15:54:44;19.30;65.10
16118;DHT22;8163;50.118;5.342;2022-10-30T15:57:16;19.30;65.40
16118;DHT22;8163;50.118;5.342;2022-10-30T15:59:49;19.20;65.90
16118;DHT22;8163;50.118;5.342;2022-10-30T16:02:19;19.20;66.40
16118;DHT22;8163;50.118;5.342;2022-10-30T16:04:47;19.10;66.60
16118;DHT22;8163;50.118;5.342;2022-10-30T16:07:17;19.10;66.90
16118;DHT22;8163;50.118;5.342;2022-10-30T16:09:56;19.00;67.30
16118;DHT22;8163;50.118;5.342;2022-10-30T16:12:26;18.90;67.90
16118;DHT22;8163;50.118;5.342;2022-10-30T16:14:55;18.90;68.70
16118;DHT22;8163;50.118;5.342;2022-10-30T16:17:23;18.80;68.30
16118;DHT22;8163;50.118;5.342;2022-10-30T16:19:53;18.80;68.30
16118;DHT22;8163;50.118;5.342;2022-10-30T16:22:24;18.80;68.50
16118;DHT22;8163;50.118;5.342;2022-10-30T16:24:55;18.70;68.80
16118;DHT22;8163;50.118;5.342;2022-10-30T16:27:23;18.60;69.10
16118;DHT22;8163;50.118;5.342;2022-10-30T16:29:52;18.60;69.50
16118;DHT22;8163;50.118;5.342;2022-10-30T16:32:25;18.50;69.90
16118;DHT22;8163;50.118;5.342;2022-10-30T16:34:54;18.40;70.20
16118;DHT22;8163;50.118;5.342;2022-10-30T16:37:24;18.40;70.40
16118;DHT22;8163;50.118;5.342;2022-10-30T16:39:52;18.30;70.70
16118;DHT22;8163;50.118;5.342;2022-10-30T16:42:24;18.30;71.00
16118;DHT22;8163;50.118;5.342;2022-10-30T16:47:46;18.20;71.70
16118;DHT22;8163;50.118;5.342;2022-10-30T16:50:18;18.20;71.60
16118;DHT22;8163;50.118;5.342;2022-10-30T16:52:46;18.20;71.90
16118;DHT22;8163;50.118;5.342;2022-10-30T16:55:19;18.10;72.00